sensor_id;sensor_type;location;lat;lon;timestamp;P1;durP1;ratioP1;P2;durP2;ratioP2
6342;SDS011;3204;42.698;23.298;2023-05-07T00:01:50;33.65;;;20.08;;
6342;SDS011;3204;42.698;23.298;2023-05-07T00:04:16;27.88;;;16.90;;
6342;SDS011;3204;42.698;23.298;2023-05-07T00:06:42;23.27;;;15.90;;
6342;SDS011;3204;42.698;23.298;2023-05-07T00:09:07;19.02;;;14.45;;
6342;SDS011;3204;42.698;23.298;2023-05-07T00:11:33;19.20;;;13.80;;
6342;SDS011;3204;42.698;23.298;2023-05-07T00:13:58;22.05;;;14.52;;
6342;SDS011;3204;42.698;23.298;2023-05-07T00:16:24;18.63;;;14.80;;
6342;SDS011;3204;42.698;23.298;2023-05-07T00:18:50;17.42;;;13.48;;
6342;SDS011;3204;42.698;23.298;2023-05-07T00:21:15;17.42;;;12.70;;
6342;SDS011;3204;42.698;23.298;2023-05-07T00:23:41;16.73;;;13.05;;
6342;SDS011;3204;42.698;23.298;2023-05-07T00:26:06;19.17;;;13.95;;
6342;SDS011;3204;42.698;23.298;2023-05-07T00:28:32;19.60;;;14.02;;
6342;SDS011;3204;42.698;23.298;2023-05-07T00:30:57;29.83;;;17.48;;
6342;SDS011;3204;42.698;23.298;2023-05-07T00:33:23;21.05;;;15.10;;
6342;SDS011;3204;42.698;23.298;2023-05-07T00:35:48;16.95;;;13.07;;
6342;SDS011;3204;42.698;23.298;2023-05-07T00:38:14;17.83;;;14.35;;
6342;SDS011;3204;42.698;23.298;2023-05-07T00:40:40;21.65;;;15.50;;
6342;SDS011;3204;42.698;23.298;2023-05-07T00:43:05;15.20;;;11.80;;
6342;SDS011;3204;42.698;23.298;2023-05-07T00:45:32;13.45;;;11.75;;
6342;SDS011;3204;42.698;23.298;2023-05-07T00:48:01;17.38;;;14.05;;
6342;SDS011;3204;42.698;23.298;2023-05-07T00:50:28;15.75;;;13.50;;
6342;SDS011;3204;42.698;23.298;2023-05-07T00:52:55;23.33;;;16.13;;
6342;SDS011;3204;42.698;23.298;2023-05-07T00:55:21;22.85;;;15.57;;
6342;SDS011;3204;42.698;23.298;2023-05-07T00:57:47;29.17;;;18.75;;
6342;SDS011;3204;42.698;23.298;2023-05-07T01:00:13;22.35;;;16.20;;
6342;SDS011;3204;42.698;23.298;2023-05-07T01:02:39;25.75;;;17.60;;
6342;SDS011;3204;42.698;23.298;2023-05-07T01:05:05;55.08;;;25.50;;
6342;SDS011;3204;42.698;23.298;2023-05-07T01:07:34;54.08;;;27.65;;
6342;SDS011;3204;42.698;23.298;2023-05-07T01:10:00;46.75;;;25.23;;
6342;SDS011;3204;42.698;23.298;2023-05-07T01:12:27;34.65;;;18.42;;
6342;SDS011;3204;42.698;23.298;2023-05-07T01:14:53;56.88;;;28.90;;
6342;SDS011;3204;42.698;23.298;2023-05-07T01:17:19;62.42;;;32.33;;
6342;SDS011;3204;42.698;23.298;2023-05-07T01:19:44;40.42;;;23.77;;
6342;SDS011;3204;42.698;23.298;2023-05-07T01:22:10;34.80;;;24.27;;
6342;SDS011;3204;42.698;23.298;2023-05-07T01:24:37;19.75;;;16.35;;
6342;SDS011;3204;42.698;23.298;2023-05-07T01:27:03;32.13;;;22.25;;
6342;SDS011;3204;42.698;23.298;2023-05-07T01:29:29;44.65;;;27.27;;
6342;SDS011;3204;42.698;23.298;2023-05-07T01:31:58;42.95;;;25.95;;
6342;SDS011;3204;42.698;23.298;2023-05-07T01:34:25;22.55;;;16.73;;
6342;SDS011;3204;42.698;23.298;2023-05-07T01:36:53;22.33;;;16.70;;
6342;SDS011;3204;42.698;23.298;2023-05-07T01:39:21;24.40;;;15.25;;
6342;SDS011;3204;42.698;23.298;2023-05-07T01:41:49;23.33;;;15.82;;
6342;SDS011;3204;42.698;23.298;2023-05-07T01:44:15;21.85;;;15.25;;
6342;SDS011;3204;42.698;23.298;2023-05-07T01:46:43;18.20;;;14.95;;
6342;SDS011;3204;42.698;23.298;2023-05-07T01:49:09;23.88;;;15.70;;
6342;SDS011;3204;42.698;23.298;2023-05-07T01:51:34;24.05;;;18.02;;
6342;SDS011;3204;42.698;23.298;2023-05-07T01:54:00;33.42;;;20.98;;
6342;SDS011;3204;42.698;23.298;2023-05-07T01:56:26;29.05;;;17.50;;
6342;SDS011;3204;42.698;23.298;2023-05-07T01:58:51;21.73;;;13.85;;
6342;SDS011;3204;42.698;23.298;2023-05-07T02:01:17;15.88;;;14.15;;
6342;SDS011;3204;42.698;23.298;2023-05-07T02:03:43;19.55;;;13.38;;
6342;SDS011;3204;42.698;23.298;2023-05-07T02:06:09;39.97;;;21.65;;
6342;SDS011;3204;42.698;23.298;2023-05-07T02:08:34;36.20;;;22.10;;
6342;SDS011;3204;42.698;23.298;2023-05-07T02:11:00;21.58;;;17.55;;
6342;SDS011;3204;42.698;23.298;2023-05-07T02:13:29;20.98;;;14.68;;
6342;SDS011;3204;42.698;23.298;2023-05-07T02:15:56;21.70;;;15.60;;
6342;SDS011;3204;42.698;23.298;2023-05-07T02:18:22;27.40;;;15.05;;
6342;SDS011;3204;42.698;23.298;2023-05-07T02:20:47;19.42;;;14.80;;
6342;SDS011;3204;42.698;23.298;2023-05-07T02:23:13;15.90;;;14.20;;
6342;SDS011;3204;42.698;23.298;2023-05-07T02:25:38;28.85;;;21.23;;
6342;SDS011;3204;42.698;23.298;2023-05-07T02:28:04;30.92;;;18.13;;
6342;SDS011;3204;42.698;23.298;2023-05-07T02:30:29;25.70;;;19.05;;
6342;SDS011;3204;42.698;23.298;2023-05-07T02:32:55;21.80;;;14.60;;
6342;SDS011;3204;42.698;23.298;2023-05-07T02:35:20;15.18;;;12.80;;
6342;SDS011;3204;42.698;23.298;2023-05-07T02:37:46;13.98;;;12.65;;
6342;SDS011;3204;42.698;23.298;2023-05-07T02:40:11;15.32;;;13.70;;
6342;SDS011;3204;42.698;23.298;2023-05-07T02:42:37;18.38;;;14.10;;
6342;SDS011;3204;42.698;23.298;2023-05-07T02:45:02;19.00;;;14.38;;
6342;SDS011;3204;42.698;23.298;2023-05-07T02:47:28;17.40;;;13.95;;
6342;SDS011;3204;42.698;23.298;2023-05-07T02:49:54;16.27;;;13.20;;
6342;SDS011;3204;42.698;23.298;2023-05-07T02:52:20;14.43;;;13.07;;
6342;SDS011;3204;42.698;23.298;2023-05-07T02:54:45;15.23;;;13.00;;
6342;SDS011;3204;42.698;23.298;2023-05-07T02:57:11;14.43;;;12.90;;
6342;SDS011;3204;42.698;23.298;2023-05-07T02:59:36;14.02;;;12.55;;
6342;SDS011;3204;42.698;23.298;2023-05-07T03:02:02;12.65;;;11.23;;
6342;SDS011;3204;42.698;23.298;2023-05-07T03:04:27;15.93;;;11.52;;
6342;SDS011;3204;42.698;23.298;2023-05-07T03:06:52;13.90;;;11.90;;
6342;SDS011;3204;42.698;23.298;2023-05-07T03:09:18;15.60;;;12.20;;
6342;SDS011;3204;42.698;23.298;2023-05-07T03:11:44;17.00;;;12.05;;
6342;SDS011;3204;42.698;23.298;2023-05-07T03:14:10;13.38;;;12.10;;
6342;SDS011;3204;42.698;23.298;2023-05-07T03:16:35;12.57;;;11.50;;
6342;SDS011;3204;42.698;23.298;2023-05-07T03:19:01;14.95;;;11.38;;
6342;SDS011;3204;42.698;23.298;2023-05-07T03:21:26;12.10;;;10.93;;
6342;SDS011;3204;42.698;23.298;2023-05-07T03:23:52;13.48;;;10.20;;
6342;SDS011;3204;42.698;23.298;2023-05-07T03:26:17;19.03;;;12.10;;
6342;SDS011;3204;42.698;23.298;2023-05-07T03:28:43;15.18;;;11.65;;
6342;SDS011;3204;42.698;23.298;2023-05-07T03:31:08;13.93;;;10.95;;
6342;SDS011;3204;42.698;23.298;2023-05-07T03:33:33;19.42;;;13.40;;
6342;SDS011;3204;42.698;23.298;2023-05-07T03:36:00;24.25;;;13.73;;
6342;SDS011;3204;42.698;23.298;2023-05-07T03:38:25;23.50;;;14.85;;
6342;SDS011;3204;42.698;23.298;2023-05-07T03:40:51;16.92;;;13.77;;
6342;SDS011;3204;42.698;23.298;2023-05-07T03:43:16;17.08;;;12.98;;
6342;SDS011;3204;42.698;23.298;2023-05-07T03:45:42;16.80;;;12.83;;
6342;SDS011;3204;42.698;23.298;2023-05-07T03:48:07;19.90;;;12.38;;
6342;SDS011;3204;42.698;23.298;2023-05-07T03:50:33;20.00;;;12.80;;
6342;SDS011;3204;42.698;23.298;2023-05-07T03:52:58;15.68;;;11.57;;
6342;SDS011;3204;42.698;23.298;2023-05-07T03:55:23;12.52;;;11.10;;
6342;SDS011;3204;42.698;23.298;2023-05-07T03:57:50;12.53;;;10.40;;
6342;SDS011;3204;42.698;23.298;2023-05-07T04:00:15;14.23;;;10.48;;
6342;SDS011;3204;42.698;23.298;2023-05-07T04:02:41;10.87;;;9.77;;
6342;SDS011;3204;42.698;23.298;2023-05-07T04:05:07;11.57;;;10.63;;
6342;SDS011;3204;42.698;23.298;2023-05-07T04:07:32;12.75;;;10.25;;
6342;SDS011;3204;42.698;23.298;2023-05-07T04:09:58;12.65;;;10.55;;
6342;SDS011;3204;42.698;23.298;2023-05-07T04:12:23;11.52;;;10.63;;
6342;SDS011;3204;42.698;23.298;2023-05-07T04:14:49;13.52;;;10.13;;
6342;SDS011;3204;42.698;23.298;2023-05-07T04:17:15;13.75;;;10.68;;
6342;SDS011;3204;42.698;23.298;2023-05-07T04:19:40;11.33;;;9.97;;
6342;SDS011;3204;42.698;23.298;2023-05-07T04:22:10;14.38;;;11.07;;
6342;SDS011;3204;42.698;23.298;2023-05-07T04:24:35;12.25;;;11.25;;
6342;SDS011;3204;42.698;23.298;2023-05-07T04:27:01;13.18;;;10.77;;
6342;SDS011;3204;42.698;23.298;2023-05-07T04:29:26;11.13;;;10.07;;
6342;SDS011;3204;42.698;23.298;2023-05-07T04:31:52;12.18;;;10.73;;
6342;SDS011;3204;42.698;23.298;2023-05-07T04:34:17;13.37;;;10.87;;
6342;SDS011;3204;42.698;23.298;2023-05-07T04:36:43;12.25;;;10.45;;
6342;SDS011;3204;42.698;23.298;2023-05-07T04:39:08;10.90;;;10.00;;
6342;SDS011;3204;42.698;23.298;2023-05-07T04:41:35;10.88;;;9.90;;
6342;SDS011;3204;42.698;23.298;2023-05-07T04:44:01;11.57;;;10.57;;
6342;SDS011;3204;42.698;23.298;2023-05-07T04:46:29;12.52;;;10.80;;
6342;SDS011;3204;42.698;23.298;2023-05-07T04:48:54;11.77;;;10.70;;
6342;SDS011;3204;42.698;23.298;2023-05-07T04:51:20;12.02;;;10.48;;
6342;SDS011;3204;42.698;23.298;2023-05-07T04:53:45;11.68;;;10.63;;
6342;SDS011;3204;42.698;23.298;2023-05-07T04:56:11;11.98;;;10.88;;
6342;SDS011;3204;42.698;23.298;2023-05-07T04:58:36;11.73;;;10.70;;
6342;SDS011;3204;42.698;23.298;2023-05-07T05:01:01;11.77;;;10.60;;
6342;SDS011;3204;42.698;23.298;2023-05-07T05:03:27;12.18;;;11.00;;
6342;SDS011;3204;42.698;23.298;2023-05-07T05:05:52;14.10;;;10.93;;
6342;SDS011;3204;42.698;23.298;2023-05-07T05:08:18;13.20;;;10.48;;
6342;SDS011;3204;42.698;23.298;2023-05-07T05:10:43;14.93;;;10.45;;
6342;SDS011;3204;42.698;23.298;2023-05-07T05:13:09;12.52;;;11.45;;
6342;SDS011;3204;42.698;23.298;2023-05-07T05:15:37;12.57;;;11.45;;
6342;SDS011;3204;42.698;23.298;2023-05-07T05:18:03;12.55;;;11.30;;
6342;SDS011;3204;42.698;23.298;2023-05-07T05:20:28;15.30;;;12.10;;
6342;SDS011;3204;42.698;23.298;2023-05-07T05:22:54;13.70;;;12.15;;
6342;SDS011;3204;42.698;23.298;2023-05-07T05:25:20;12.95;;;11.77;;
6342;SDS011;3204;42.698;23.298;2023-05-07T05:27:45;13.55;;;12.35;;
6342;SDS011;3204;42.698;23.298;2023-05-07T05:30:11;12.80;;;11.50;;
6342;SDS011;3204;42.698;23.298;2023-05-07T05:32:37;12.10;;;11.07;;
6342;SDS011;3204;42.698;23.298;2023-05-07T05:35:03;12.65;;;11.45;;
6342;SDS011;3204;42.698;23.298;2023-05-07T05:37:29;13.07;;;11.98;;
6342;SDS011;3204;42.698;23.298;2023-05-07T05:39:56;13.25;;;11.93;;
6342;SDS011;3204;42.698;23.298;2023-05-07T05:42:21;16.75;;;12.27;;
6342;SDS011;3204;42.698;23.298;2023-05-07T05:44:47;13.63;;;12.23;;
6342;SDS011;3204;42.698;23.298;2023-05-07T05:47:13;13.80;;;12.55;;
6342;SDS011;3204;42.698;23.298;2023-05-07T05:49:38;14.02;;;12.80;;
6342;SDS011;3204;42.698;23.298;2023-05-07T05:52:04;16.65;;;13.20;;
6342;SDS011;3204;42.698;23.298;2023-05-07T05:54:29;15.68;;;13.25;;
6342;SDS011;3204;42.698;23.298;2023-05-07T05:56:55;15.88;;;12.43;;
6342;SDS011;3204;42.698;23.298;2023-05-07T05:59:20;15.23;;;13.70;;
6342;SDS011;3204;42.698;23.298;2023-05-07T06:01:46;13.95;;;12.75;;
6342;SDS011;3204;42.698;23.298;2023-05-07T06:04:11;15.52;;;13.88;;
6342;SDS011;3204;42.698;23.298;2023-05-07T06:06:37;16.13;;;13.55;;
6342;SDS011;3204;42.698;23.298;2023-05-07T06:09:02;14.45;;;12.55;;
6342;SDS011;3204;42.698;23.298;2023-05-07T06:11:28;14.90;;;12.98;;
6342;SDS011;3204;42.698;23.298;2023-05-07T06:13:53;14.00;;;12.68;;
6342;SDS011;3204;42.698;23.298;2023-05-07T06:16:19;14.95;;;13.45;;
6342;SDS011;3204;42.698;23.298;2023-05-07T06:18:44;13.32;;;12.02;;
6342;SDS011;3204;42.698;23.298;2023-05-07T06:21:11;15.00;;;12.68;;
6342;SDS011;3204;42.698;23.298;2023-05-07T06:23:38;14.50;;;13.05;;
6342;SDS011;3204;42.698;23.298;2023-05-07T06:26:05;13.98;;;12.57;;
6342;SDS011;3204;42.698;23.298;2023-05-07T06:28:31;14.15;;;12.73;;
6342;SDS011;3204;42.698;23.298;2023-05-07T06:31:17;13.18;;;11.98;;
6342;SDS011;3204;42.698;23.298;2023-05-07T06:33:46;14.05;;;12.75;;
6342;SDS011;3204;42.698;23.298;2023-05-07T06:36:12;13.70;;;12.48;;
6342;SDS011;3204;42.698;23.298;2023-05-07T06:38:38;13.82;;;12.43;;
6342;SDS011;3204;42.698;23.298;2023-05-07T06:41:03;13.38;;;12.02;;
6342;SDS011;3204;42.698;23.298;2023-05-07T06:43:30;12.93;;;11.63;;
6342;SDS011;3204;42.698;23.298;2023-05-07T06:45:56;14.52;;;12.90;;
6342;SDS011;3204;42.698;23.298;2023-05-07T06:48:21;13.43;;;12.00;;
6342;SDS011;3204;42.698;23.298;2023-05-07T06:50:47;13.82;;;12.23;;
6342;SDS011;3204;42.698;23.298;2023-05-07T06:53:12;13.73;;;12.52;;
6342;SDS011;3204;42.698;23.298;2023-05-07T06:55:37;13.35;;;11.93;;
6342;SDS011;3204;42.698;23.298;2023-05-07T06:58:03;13.13;;;11.90;;
6342;SDS011;3204;42.698;23.298;2023-05-07T07:00:29;11.90;;;10.82;;
6342;SDS011;3204;42.698;23.298;2023-05-07T07:02:55;11.82;;;10.93;;
6342;SDS011;3204;42.698;23.298;2023-05-07T07:05:21;12.57;;;11.23;;
6342;SDS011;3204;42.698;23.298;2023-05-07T07:07:47;13.90;;;12.13;;
6342;SDS011;3204;42.698;23.298;2023-05-07T07:10:18;14.70;;;11.48;;
6342;SDS011;3204;42.698;23.298;2023-05-07T07:12:44;13.02;;;11.80;;
6342;SDS011;3204;42.698;23.298;2023-05-07T07:15:10;13.55;;;12.30;;
6342;SDS011;3204;42.698;23.298;2023-05-07T07:17:35;12.68;;;11.52;;
6342;SDS011;3204;42.698;23.298;2023-05-07T07:20:01;12.38;;;11.23;;
6342;SDS011;3204;42.698;23.298;2023-05-07T07:22:27;11.68;;;10.48;;
6342;SDS011;3204;42.698;23.298;2023-05-07T07:24:53;12.23;;;11.18;;
6342;SDS011;3204;42.698;23.298;2023-05-07T07:27:18;11.30;;;10.30;;
6342;SDS011;3204;42.698;23.298;2023-05-07T07:29:44;12.43;;;11.23;;
6342;SDS011;3204;42.698;23.298;2023-05-07T07:32:10;12.15;;;10.77;;
6342;SDS011;3204;42.698;23.298;2023-05-07T07:34:35;11.73;;;10.50;;
6342;SDS011;3204;42.698;23.298;2023-05-07T07:37:01;10.27;;;9.57;;
6342;SDS011;3204;42.698;23.298;2023-05-07T07:39:30;11.40;;;9.95;;
6342;SDS011;3204;42.698;23.298;2023-05-07T07:41:56;10.70;;;9.88;;
6342;SDS011;3204;42.698;23.298;2023-05-07T07:44:21;10.52;;;9.82;;
6342;SDS011;3204;42.698;23.298;2023-05-07T07:46:47;10.75;;;9.82;;
6342;SDS011;3204;42.698;23.298;2023-05-07T07:49:12;10.18;;;9.48;;
6342;SDS011;3204;42.698;23.298;2023-05-07T07:51:38;11.70;;;10.57;;
6342;SDS011;3204;42.698;23.298;2023-05-07T07:54:03;12.73;;;11.63;;
6342;SDS011;3204;42.698;23.298;2023-05-07T07:56:29;12.75;;;10.35;;
6342;SDS011;3204;42.698;23.298;2023-05-07T07:58:54;12.15;;;11.05;;
6342;SDS011;3204;42.698;23.298;2023-05-07T08:01:20;12.57;;;10.63;;
6342;SDS011;3204;42.698;23.298;2023-05-07T08:03:45;12.27;;;11.15;;
6342;SDS011;3204;42.698;23.298;2023-05-07T08:06:11;11.57;;;10.50;;
6342;SDS011;3204;42.698;23.298;2023-05-07T08:08:36;12.25;;;11.23;;
6342;SDS011;3204;42.698;23.298;2023-05-07T08:11:02;11.88;;;10.88;;
6342;SDS011;3204;42.698;23.298;2023-05-07T08:13:27;10.85;;;10.02;;
6342;SDS011;3204;42.698;23.298;2023-05-07T08:15:53;10.07;;;9.25;;
6342;SDS011;3204;42.698;23.298;2023-05-07T08:18:19;10.18;;;9.05;;
6342;SDS011;3204;42.698;23.298;2023-05-07T08:20:44;9.75;;;9.07;;
6342;SDS011;3204;42.698;23.298;2023-05-07T08:23:09;10.13;;;9.43;;
6342;SDS011;3204;42.698;23.298;2023-05-07T08:25:35;10.95;;;10.15;;
6342;SDS011;3204;42.698;23.298;2023-05-07T08:28:01;9.57;;;8.68;;
6342;SDS011;3204;42.698;23.298;2023-05-07T08:30:26;8.27;;;7.57;;
6342;SDS011;3204;42.698;23.298;2023-05-07T08:32:52;9.15;;;8.25;;
6342;SDS011;3204;42.698;23.298;2023-05-07T08:35:17;9.30;;;8.48;;
6342;SDS011;3204;42.698;23.298;2023-05-07T08:37:43;9.60;;;8.68;;
6342;SDS011;3204;42.698;23.298;2023-05-07T08:40:09;8.70;;;7.97;;
6342;SDS011;3204;42.698;23.298;2023-05-07T08:42:35;8.27;;;7.80;;
6342;SDS011;3204;42.698;23.298;2023-05-07T08:45:04;7.30;;;6.70;;
6342;SDS011;3204;42.698;23.298;2023-05-07T08:47:45;6.75;;;6.28;;
6342;SDS011;3204;42.698;23.298;2023-05-07T08:50:12;6.00;;;5.50;;
6342;SDS011;3204;42.698;23.298;2023-05-07T08:52:38;6.35;;;5.95;;
6342;SDS011;3204;42.698;23.298;2023-05-07T08:55:05;7.00;;;6.00;;
6342;SDS011;3204;42.698;23.298;2023-05-07T08:57:32;7.07;;;6.38;;
6342;SDS011;3204;42.698;23.298;2023-05-07T08:59:57;7.55;;;6.97;;
6342;SDS011;3204;42.698;23.298;2023-05-07T09:02:23;6.97;;;6.53;;
6342;SDS011;3204;42.698;23.298;2023-05-07T09:04:48;6.85;;;6.40;;
6342;SDS011;3204;42.698;23.298;2023-05-07T09:07:14;6.72;;;6.32;;
6342;SDS011;3204;42.698;23.298;2023-05-07T09:09:40;6.82;;;6.32;;
6342;SDS011;3204;42.698;23.298;2023-05-07T09:12:05;7.45;;;6.95;;
6342;SDS011;3204;42.698;23.298;2023-05-07T09:14:31;6.78;;;6.18;;
6342;SDS011;3204;42.698;23.298;2023-05-07T09:16:56;7.97;;;6.43;;
6342;SDS011;3204;42.698;23.298;2023-05-07T09:19:22;6.35;;;6.05;;
6342;SDS011;3204;42.698;23.298;2023-05-07T09:21:49;5.97;;;5.65;;
6342;SDS011;3204;42.698;23.298;2023-05-07T09:24:15;6.80;;;6.38;;
6342;SDS011;3204;42.698;23.298;2023-05-07T09:26:41;7.70;;;7.00;;
6342;SDS011;3204;42.698;23.298;2023-05-07T09:29:07;6.65;;;6.05;;
6342;SDS011;3204;42.698;23.298;2023-05-07T09:31:37;6.63;;;6.10;;
6342;SDS011;3204;42.698;23.298;2023-05-07T09:34:04;6.43;;;5.90;;
6342;SDS011;3204;42.698;23.298;2023-05-07T09:36:31;5.90;;;5.32;;
6342;SDS011;3204;42.698;23.298;2023-05-07T09:38:59;4.72;;;4.53;;
6342;SDS011;3204;42.698;23.298;2023-05-07T09:41:25;5.30;;;4.85;;
6342;SDS011;3204;42.698;23.298;2023-05-07T09:43:54;4.88;;;4.47;;
6342;SDS011;3204;42.698;23.298;2023-05-07T09:46:22;4.75;;;4.45;;
6342;SDS011;3204;42.698;23.298;2023-05-07T09:48:53;5.50;;;5.00;;
6342;SDS011;3204;42.698;23.298;2023-05-07T09:51:43;5.70;;;5.20;;
6342;SDS011;3204;42.698;23.298;2023-05-07T09:54:12;6.05;;;5.60;;
6342;SDS011;3204;42.698;23.298;2023-05-07T09:56:39;5.93;;;5.43;;
6342;SDS011;3204;42.698;23.298;2023-05-07T09:59:06;5.13;;;4.70;;
6342;SDS011;3204;42.698;23.298;2023-05-07T10:01:32;4.50;;;4.20;;
6342;SDS011;3204;42.698;23.298;2023-05-07T10:04:02;4.63;;;4.20;;
6342;SDS011;3204;42.698;23.298;2023-05-07T10:06:29;4.10;;;3.90;;
6342;SDS011;3204;42.698;23.298;2023-05-07T10:08:55;4.00;;;3.78;;
6342;SDS011;3204;42.698;23.298;2023-05-07T10:11:21;3.80;;;3.60;;
6342;SDS011;3204;42.698;23.298;2023-05-07T10:13:48;4.50;;;4.15;;
6342;SDS011;3204;42.698;23.298;2023-05-07T10:16:13;4.25;;;3.72;;
6342;SDS011;3204;42.698;23.298;2023-05-07T10:18:40;6.38;;;5.88;;
6342;SDS011;3204;42.698;23.298;2023-05-07T10:21:15;4.75;;;4.55;;
6342;SDS011;3204;42.698;23.298;2023-05-07T10:23:44;4.47;;;4.22;;
6342;SDS011;3204;42.698;23.298;2023-05-07T10:26:12;4.15;;;3.95;;
6342;SDS011;3204;42.698;23.298;2023-05-07T10:28:41;3.83;;;3.63;;
6342;SDS011;3204;42.698;23.298;2023-05-07T10:34:14;4.40;;;3.75;;
6342;SDS011;3204;42.698;23.298;2023-05-07T10:36:44;3.78;;;3.58;;
6342;SDS011;3204;42.698;23.298;2023-05-07T10:39:10;4.20;;;3.45;;
6342;SDS011;3204;42.698;23.298;2023-05-07T10:41:35;3.55;;;3.25;;
6342;SDS011;3204;42.698;23.298;2023-05-07T10:44:01;3.42;;;3.33;;
6342;SDS011;3204;42.698;23.298;2023-05-07T10:46:27;3.90;;;3.70;;
6342;SDS011;3204;42.698;23.298;2023-05-07T10:51:28;3.80;;;3.50;;
6342;SDS011;3204;42.698;23.298;2023-05-07T10:56:39;4.25;;;3.97;;
6342;SDS011;3204;42.698;23.298;2023-05-07T11:04:31;3.88;;;3.67;;
6342;SDS011;3204;42.698;23.298;2023-05-07T11:07:23;4.13;;;3.83;;
6342;SDS011;3204;42.698;23.298;2023-05-07T11:12:17;4.35;;;3.95;;
6342;SDS011;3204;42.698;23.298;2023-05-07T11:15:06;4.10;;;3.90;;
6342;SDS011;3204;42.698;23.298;2023-05-07T11:17:32;5.47;;;4.03;;
6342;SDS011;3204;42.698;23.298;2023-05-07T11:20:00;3.90;;;3.70;;
6342;SDS011;3204;42.698;23.298;2023-05-07T11:25:04;3.33;;;3.00;;
6342;SDS011;3204;42.698;23.298;2023-05-07T11:27:30;3.42;;;3.10;;
6342;SDS011;3204;42.698;23.298;2023-05-07T11:29:57;3.40;;;3.20;;
6342;SDS011;3204;42.698;23.298;2023-05-07T11:32:26;4.25;;;3.20;;
6342;SDS011;3204;42.698;23.298;2023-05-07T11:34:53;3.78;;;3.20;;
6342;SDS011;3204;42.698;23.298;2023-05-07T11:37:20;3.33;;;3.00;;
6342;SDS011;3204;42.698;23.298;2023-05-07T11:39:46;3.40;;;3.20;;
6342;SDS011;3204;42.698;23.298;2023-05-07T11:42:30;3.97;;;3.72;;
6342;SDS011;3204;42.698;23.298;2023-05-07T11:44:57;3.75;;;3.55;;
6342;SDS011;3204;42.698;23.298;2023-05-07T11:47:22;3.55;;;3.45;;
6342;SDS011;3204;42.698;23.298;2023-05-07T11:49:49;3.90;;;3.58;;
6342;SDS011;3204;42.698;23.298;2023-05-07T11:52:16;3.97;;;3.78;;
6342;SDS011;3204;42.698;23.298;2023-05-07T11:54:49;3.53;;;3.42;;
6342;SDS011;3204;42.698;23.298;2023-05-07T11:57:22;8.73;;;3.58;;
6342;SDS011;3204;42.698;23.298;2023-05-07T11:59:52;3.78;;;3.58;;
6342;SDS011;3204;42.698;23.298;2023-05-07T12:02:20;3.10;;;2.90;;
6342;SDS011;3204;42.698;23.298;2023-05-07T12:04:47;3.08;;;2.90;;
6342;SDS011;3204;42.698;23.298;2023-05-07T12:07:13;2.80;;;2.60;;
6342;SDS011;3204;42.698;23.298;2023-05-07T12:09:42;3.10;;;2.90;;
6342;SDS011;3204;42.698;23.298;2023-05-07T12:12:09;2.72;;;2.63;;
6342;SDS011;3204;42.698;23.298;2023-05-07T12:14:41;2.72;;;2.63;;
6342;SDS011;3204;42.698;23.298;2023-05-07T12:17:08;2.83;;;2.72;;
6342;SDS011;3204;42.698;23.298;2023-05-07T12:19:35;2.72;;;2.53;;
6342;SDS011;3204;42.698;23.298;2023-05-07T12:22:04;3.28;;;3.00;;
6342;SDS011;3204;42.698;23.298;2023-05-07T12:27:28;3.40;;;3.20;;
6342;SDS011;3204;42.698;23.298;2023-05-07T12:29:53;3.72;;;3.53;;
6342;SDS011;3204;42.698;23.298;2023-05-07T12:32:19;3.15;;;2.95;;
6342;SDS011;3204;42.698;23.298;2023-05-07T12:34:46;2.67;;;2.58;;
6342;SDS011;3204;42.698;23.298;2023-05-07T12:37:14;3.25;;;2.95;;
6342;SDS011;3204;42.698;23.298;2023-05-07T12:39:44;3.42;;;3.13;;
6342;SDS011;3204;42.698;23.298;2023-05-07T12:42:16;3.00;;;2.70;;
6342;SDS011;3204;42.698;23.298;2023-05-07T12:44:45;3.20;;;3.00;;
6342;SDS011;3204;42.698;23.298;2023-05-07T12:47:11;3.05;;;2.85;;
6342;SDS011;3204;42.698;23.298;2023-05-07T12:49:37;3.33;;;3.13;;
6342;SDS011;3204;42.698;23.298;2023-05-07T12:52:04;3.45;;;3.25;;
6342;SDS011;3204;42.698;23.298;2023-05-07T12:54:34;2.83;;;2.72;;
6342;SDS011;3204;42.698;23.298;2023-05-07T12:57:02;11.70;;;4.35;;
6342;SDS011;3204;42.698;23.298;2023-05-07T13:01:57;3.10;;;3.00;;
6342;SDS011;3204;42.698;23.298;2023-05-07T13:04:24;3.10;;;3.00;;
6342;SDS011;3204;42.698;23.298;2023-05-07T13:06:50;3.45;;;3.25;;
6342;SDS011;3204;42.698;23.298;2023-05-07T13:09:15;3.35;;;3.05;;
6342;SDS011;3204;42.698;23.298;2023-05-07T13:11:40;3.28;;;3.03;;
6342;SDS011;3204;42.698;23.298;2023-05-07T13:14:06;3.60;;;2.95;;
6342;SDS011;3204;42.698;23.298;2023-05-07T13:16:31;3.17;;;2.95;;
6342;SDS011;3204;42.698;23.298;2023-05-07T13:18:57;3.42;;;3.20;;
6342;SDS011;3204;42.698;23.298;2023-05-07T13:21:23;3.45;;;3.00;;
6342;SDS011;3204;42.698;23.298;2023-05-07T13:23:48;2.90;;;2.80;;
6342;SDS011;3204;42.698;23.298;2023-05-07T13:26:13;3.88;;;2.80;;
6342;SDS011;3204;42.698;23.298;2023-05-07T13:28:39;3.20;;;3.00;;
6342;SDS011;3204;42.698;23.298;2023-05-07T13:31:05;3.10;;;2.90;;
6342;SDS011;3204;42.698;23.298;2023-05-07T13:33:30;3.42;;;3.30;;
6342;SDS011;3204;42.698;23.298;2023-05-07T13:35:56;3.60;;;3.30;;
6342;SDS011;3204;42.698;23.298;2023-05-07T13:38:22;3.75;;;3.55;;
6342;SDS011;3204;42.698;23.298;2023-05-07T13:40:47;3.75;;;3.55;;
6342;SDS011;3204;42.698;23.298;2023-05-07T13:43:13;3.75;;;3.55;;
6342;SDS011;3204;42.698;23.298;2023-05-07T13:45:39;2.88;;;2.78;;
6342;SDS011;3204;42.698;23.298;2023-05-07T13:48:05;3.80;;;3.60;;
6342;SDS011;3204;42.698;23.298;2023-05-07T13:50:30;3.47;;;3.20;;
6342;SDS011;3204;42.698;23.298;2023-05-07T13:52:56;2.90;;;2.70;;
6342;SDS011;3204;42.698;23.298;2023-05-07T13:55:21;2.92;;;2.83;;
6342;SDS011;3204;42.698;23.298;2023-05-07T13:57:54;3.03;;;2.85;;
6342;SDS011;3204;42.698;23.298;2023-05-07T14:00:29;3.05;;;2.95;;
6342;SDS011;3204;42.698;23.298;2023-05-07T14:02:55;3.13;;;3.03;;
6342;SDS011;3204;42.698;23.298;2023-05-07T14:05:21;3.30;;;3.03;;
6342;SDS011;3204;42.698;23.298;2023-05-07T14:07:51;3.75;;;3.55;;
6342;SDS011;3204;42.698;23.298;2023-05-07T14:10:17;3.25;;;3.10;;
6342;SDS011;3204;42.698;23.298;2023-05-07T14:12:44;3.38;;;3.17;;
6342;SDS011;3204;42.698;23.298;2023-05-07T14:15:10;3.17;;;3.08;;
6342;SDS011;3204;42.698;23.298;2023-05-07T14:17:36;3.35;;;3.15;;
6342;SDS011;3204;42.698;23.298;2023-05-07T14:20:02;3.30;;;3.08;;
6342;SDS011;3204;42.698;23.298;2023-05-07T14:22:28;4.90;;;3.58;;
6342;SDS011;3204;42.698;23.298;2023-05-07T14:24:53;4.07;;;3.65;;
6342;SDS011;3204;42.698;23.298;2023-05-07T14:27:19;3.45;;;3.35;;
6342;SDS011;3204;42.698;23.298;2023-05-07T14:29:44;4.10;;;3.70;;
6342;SDS011;3204;42.698;23.298;2023-05-07T14:32:10;3.92;;;3.50;;
6342;SDS011;3204;42.698;23.298;2023-05-07T14:34:36;4.20;;;3.30;;
6342;SDS011;3204;42.698;23.298;2023-05-07T14:37:01;3.63;;;3.30;;
6342;SDS011;3204;42.698;23.298;2023-05-07T14:39:27;3.70;;;3.50;;
6342;SDS011;3204;42.698;23.298;2023-05-07T14:41:52;3.83;;;3.58;;
6342;SDS011;3204;42.698;23.298;2023-05-07T14:44:19;3.63;;;3.40;;
6342;SDS011;3204;42.698;23.298;2023-05-07T14:46:45;3.08;;;2.97;;
6342;SDS011;3204;42.698;23.298;2023-05-07T14:49:10;3.40;;;3.20;;
6342;SDS011;3204;42.698;23.298;2023-05-07T14:51:42;3.38;;;3.10;;
6342;SDS011;3204;42.698;23.298;2023-05-07T14:54:08;3.95;;;3.10;;
6342;SDS011;3204;42.698;23.298;2023-05-07T14:56:34;3.50;;;3.30;;
6342;SDS011;3204;42.698;23.298;2023-05-07T14:59:00;3.47;;;3.17;;
6342;SDS011;3204;42.698;23.298;2023-05-07T15:01:27;5.22;;;3.30;;
6342;SDS011;3204;42.698;23.298;2023-05-07T15:03:53;3.67;;;3.42;;
6342;SDS011;3204;42.698;23.298;2023-05-07T15:06:18;5.22;;;3.47;;